createdAt,value
2022-12-03T00:01:00.115Z,101628.91
2022-12-03T00:06:01.468Z,101621.97
2022-12-03T00:11:02.901Z,101619.41
2022-12-03T00:16:04.621Z,101616.13
2022-12-03T00:21:06.578Z,101611.69
2022-12-03T00:26:08.205Z,101607.66
2022-12-03T00:31:09.787Z,101604.72
2022-12-03T00:36:11.202Z,101602.38
2022-12-03T00:41:12.619Z,101597.34
2022-12-03T00:46:18.163Z,101593.91
2022-12-03T00:51:22.334Z,101595.81
2022-12-03T00:56:23.766Z,101599.56
2022-12-03T01:01:25.382Z,101591.09
2022-12-03T01:06:26.964Z,101606.28
2022-12-03T01:11:28.338Z,101594.09
2022-12-03T01:16:29.760Z,101603.25
2022-12-03T01:21:31.363Z,101601.59
2022-12-03T01:26:33.078Z,101600.19
2022-12-03T01:31:34.450Z,101598.78
2022-12-03T01:36:35.916Z,101596.66
2022-12-03T01:41:38.904Z,101600.34
2022-12-03T01:46:41.854Z,101599.38
2022-12-03T01:51:43.420Z,101604.00
2022-12-03T01:56:46.149Z,101603.34
2022-12-03T02:01:47.554Z,101604.22
2022-12-03T02:06:49.138Z,101604.31
2022-12-03T02:11:50.659Z,101609.47
2022-12-03T02:16:52.129Z,101597.72
2022-12-03T02:22:23.135Z,101594.19
2022-12-03T02:27:25.277Z,101602.91
2022-12-03T02:32:26.735Z,101596.00
2022-12-03T02:37:34.209Z,101594.50
2022-12-03T02:42:35.983Z,101589.47
2022-12-03T02:47:54.201Z,101591.06
2022-12-03T02:52:57.757Z,101581.94
2022-12-03T02:57:59.241Z,101580.78
2022-12-03T03:03:02.452Z,101578.66
2022-12-03T03:08:05.327Z,101572.03
2022-12-03T03:13:10.471Z,101574.34
2022-12-03T03:18:13.213Z,101576.13
2022-12-03T03:23:21.513Z,101572.09
2022-12-03T03:28:24.360Z,101574.16
2022-12-03T03:33:25.840Z,101581.75
2022-12-03T03:38:29.090Z,101570.69
2022-12-03T03:43:31.873Z,101574.97
2022-12-03T03:48:34.882Z,101575.94
2022-12-03T03:53:41.448Z,101567.75
2022-12-03T03:58:43.179Z,101571.88
2022-12-03T04:03:44.599Z,101569.34
2022-12-03T04:08:46.018Z,101560.81
2022-12-03T04:13:47.349Z,101558.38
2022-12-03T04:18:48.675Z,101559.88
2022-12-03T04:23:50.043Z,101553.13
2022-12-03T04:28:51.400Z,101553.97
2022-12-03T04:33:53.216Z,101552.50
2022-12-03T04:38:54.596Z,101549.72
2022-12-03T04:43:55.943Z,101548.00
2022-12-03T04:48:57.301Z,101541.59
2022-12-03T04:53:58.713Z,101543.72
2022-12-03T04:59:00.269Z,101541.50
2022-12-03T05:04:01.618Z,101544.00
2022-12-03T05:09:03.156Z,101541.38
2022-12-03T05:14:05.007Z,101541.84
2022-12-03T05:19:07.459Z,101538.47
2022-12-03T05:24:08.951Z,101538.34
2022-12-03T05:29:10.281Z,101542.03
2022-12-03T05:34:11.678Z,101533.59
2022-12-03T05:39:13.155Z,101527.63
2022-12-03T05:44:20.120Z,101533.41
2022-12-03T05:49:21.928Z,101529.56
2022-12-03T05:54:23.306Z,101530.78
2022-12-03T05:59:24.754Z,101526.13
2022-12-03T06:04:26.168Z,101525.72
2022-12-03T06:09:27.511Z,101528.66
2022-12-03T06:14:28.917Z,101528.91
2022-12-03T06:19:30.922Z,101523.09
2022-12-03T06:24:32.329Z,101528.72
2022-12-03T06:29:33.694Z,101527.41
2022-12-03T06:34:35.404Z,101524.47
2022-12-03T06:39:36.808Z,101527.25
2022-12-03T06:44:38.149Z,101530.16
2022-12-03T06:54:55.398Z,101525.97
2022-12-03T06:59:57.047Z,101534.28
2022-12-03T07:04:58.889Z,101526.56
2022-12-03T07:10:00.504Z,101524.31
2022-12-03T07:15:01.854Z,101526.28
2022-12-03T07:20:04.105Z,101530.84
2022-12-03T07:25:06.305Z,101533.28
2022-12-03T07:30:08.636Z,101526.28
2022-12-03T07:35:10.082Z,101529.03
2022-12-03T07:40:11.981Z,101527.63
2022-12-03T07:45:13.557Z,101532.06
2022-12-03T07:50:15.097Z,101532.38
2022-12-03T07:55:16.589Z,101532.69
2022-12-03T08:00:18.786Z,101535.13
2022-12-03T08:05:20.266Z,101530.19
2022-12-03T08:10:22.496Z,101531.91
2022-12-03T08:15:39.619Z,101539.50
2022-12-03T08:20:42.434Z,101534.94
2022-12-03T08:25:45.310Z,101538.84
2022-12-03T08:31:09.652Z,101532.44
2022-12-03T08:36:26.816Z,101541.19
2022-12-03T08:41:29.770Z,101543.81
2022-12-03T08:46:31.187Z,101538.97
2022-12-03T08:51:32.633Z,101527.94
2022-12-03T08:56:35.963Z,101543.09
2022-12-03T09:01:48.514Z,101537.28
2022-12-03T09:06:51.377Z,101537.72
2022-12-03T09:11:53.421Z,101533.31
2022-12-03T09:16:56.235Z,101528.34
2022-12-03T09:21:57.899Z,101532.78
2022-12-03T09:26:59.605Z,101532.34
2022-12-03T09:32:27.955Z,101521.69
2022-12-03T09:37:29.414Z,101527.69
2022-12-03T09:42:30.888Z,101527.81
2022-12-03T09:47:32.377Z,101521.69
2022-12-03T09:52:34.462Z,101511.31
2022-12-03T09:57:35.951Z,101512.59
2022-12-03T10:02:37.439Z,101514.81
2022-12-03T10:07:39.715Z,101512.84
2022-12-03T10:12:41.166Z,101504.84
2022-12-03T10:17:42.996Z,101496.34
2022-12-03T10:22:44.338Z,101495.69
2022-12-03T10:28:01.100Z,101488.69
2022-12-03T10:33:15.875Z,101493.84
2022-12-03T10:38:21.460Z,101477.06
2022-12-03T10:43:26.683Z,101470.81
2022-12-03T10:48:28.126Z,101458.47
2022-12-03T10:53:38.564Z,101456.03
2022-12-03T10:58:43.866Z,101438.69
2022-12-03T11:03:45.998Z,101443.72
2022-12-03T11:08:56.789Z,101441.22
2022-12-03T11:14:04.031Z,101433.16
2022-12-03T11:19:16.042Z,101428.94
2022-12-03T11:24:20.789Z,101418.28
2022-12-03T11:29:51.955Z,101417.66
2022-12-03T11:34:53.660Z,101410.19
2022-12-03T11:40:00.681Z,101405.81
2022-12-03T11:45:05.085Z,101396.59
2022-12-03T11:50:40.673Z,101396.97
2022-12-03T11:55:45.306Z,101401.22
2022-12-03T12:00:51.774Z,101390.84
2022-12-03T12:06:13.610Z,101389.81
2022-12-03T12:11:32.198Z,101375.44
2022-12-03T12:16:53.964Z,101376.59
2022-12-03T12:21:56.079Z,101374.25
2022-12-03T12:27:08.824Z,101361.63
2022-12-03T12:32:10.284Z,101362.19
2022-12-03T12:37:33.617Z,101352.91
2022-12-03T12:42:44.261Z,101344.75
2022-12-03T12:48:10.063Z,101343.41
2022-12-03T12:53:17.581Z,101326.47
2022-12-03T12:58:19.855Z,101327.41
2022-12-03T13:03:24.293Z,101334.44
2022-12-03T13:08:32.142Z,101328.03
2022-12-03T13:13:44.177Z,101331.16
2022-12-03T13:18:48.445Z,101321.78
2022-12-03T13:23:57.214Z,101314.59
2022-12-03T13:29:02.436Z,101319.69
2022-12-03T13:34:14.001Z,101318.56
2022-12-03T13:39:27.174Z,101313.84
2022-12-03T13:44:30.315Z,101305.28
2022-12-03T13:49:32.008Z,101304.44
2022-12-03T13:54:34.378Z,101303.38
2022-12-03T13:59:35.736Z,101299.34
2022-12-03T14:04:37.130Z,101292.34
2022-12-03T14:09:38.553Z,101292.44
2022-12-03T14:14:39.906Z,101298.78
2022-12-03T14:19:41.349Z,101286.75
2022-12-03T14:24:42.784Z,101291.44
2022-12-03T14:40:47.523Z,101288.91
2022-12-03T14:45:49.128Z,101280.03
2022-12-03T14:50:50.536Z,101290.69
2022-12-03T14:55:51.908Z,101289.44
2022-12-03T15:00:53.478Z,101285.03
2022-12-03T15:05:54.981Z,101281.97
2022-12-03T15:10:56.495Z,101276.91
2022-12-03T15:15:57.975Z,101279.91
2022-12-03T15:20:59.443Z,101276.06
2022-12-03T15:26:00.852Z,101284.09
2022-12-03T15:31:02.371Z,101279.28
2022-12-03T15:36:03.954Z,101273.44
2022-12-03T15:41:05.526Z,101275.81
2022-12-03T15:46:07.142Z,101276.38
2022-12-03T15:51:08.700Z,101268.34
2022-12-03T15:56:10.103Z,101276.09
2022-12-03T16:01:11.627Z,101278.56
2022-12-03T16:06:12.967Z,101278.72
2022-12-03T16:11:14.374Z,101277.75
2022-12-03T16:16:15.769Z,101275.69
2022-12-03T16:21:20.752Z,101281.38
2022-12-03T16:26:24.799Z,101292.16
2022-12-03T16:31:26.443Z,101289.94
2022-12-03T16:36:27.775Z,101289.22
2022-12-03T16:41:29.299Z,101281.34
2022-12-03T16:46:31.050Z,101283.31
2022-12-03T16:51:32.490Z,101275.28
2022-12-03T16:56:33.893Z,101281.97
2022-12-03T17:01:35.376Z,101273.50
2022-12-03T17:06:36.803Z,101273.19
2022-12-03T17:11:38.180Z,101272.66
2022-12-03T17:16:39.564Z,101273.63
2022-12-03T17:21:41.703Z,101273.75
2022-12-03T17:26:43.051Z,101271.97
2022-12-03T17:31:44.524Z,101273.25
2022-12-03T17:36:46.090Z,101260.91
2022-12-03T17:41:47.500Z,101260.75
2022-12-03T17:46:48.890Z,101249.00
2022-12-03T17:51:50.319Z,101250.78
2022-12-03T17:56:51.684Z,101256.75
2022-12-03T18:01:53.175Z,101255.94
2022-12-03T18:06:59.036Z,101246.94
2022-12-03T18:12:03.586Z,101248.56
2022-12-03T18:17:05.044Z,101244.13
2022-12-03T18:22:06.449Z,101240.72
2022-12-03T18:27:08.078Z,101230.78
2022-12-03T18:32:27.204Z,101233.25
2022-12-03T18:37:31.496Z,101231.44
2022-12-03T18:42:32.904Z,101228.88
2022-12-03T18:47:34.341Z,101226.63
2022-12-03T18:52:35.873Z,101221.63
2022-12-03T18:57:37.309Z,101207.69
2022-12-03T19:03:01.736Z,101210.28
2022-12-03T19:08:00.852Z,101218.59
2022-12-03T19:13:02.316Z,101218.97
2022-12-03T19:18:04.654Z,101217.47
2022-12-03T19:23:06.198Z,101220.78
2022-12-03T19:28:07.949Z,101219.56
2022-12-03T19:33:09.409Z,101225.94
2022-12-03T19:38:10.813Z,101225.25
2022-12-03T19:43:12.320Z,101222.06
2022-12-03T19:48:13.702Z,101224.13
2022-12-03T19:53:15.595Z,101229.00
2022-12-03T19:58:17.081Z,101232.72
2022-12-03T20:03:18.805Z,101236.31
2022-12-03T20:08:20.301Z,101229.97
2022-12-03T20:13:21.839Z,101227.75
2022-12-03T20:18:23.823Z,101229.13
2022-12-03T20:23:25.393Z,101234.25
2022-12-03T20:28:28.496Z,101225.53
2022-12-03T20:33:30.319Z,101220.00
2022-12-03T20:38:34.590Z,101223.59
2022-12-03T20:43:36.452Z,101219.88
2022-12-03T20:48:38.616Z,101210.31
2022-12-03T20:53:40.679Z,101221.53
2022-12-03T20:58:42.121Z,101210.72
2022-12-03T21:03:44.610Z,101213.53
2022-12-03T21:08:46.434Z,101212.56
2022-12-03T21:13:48.019Z,101202.31
2022-12-03T21:18:49.542Z,101198.16
2022-12-03T21:23:50.956Z,101200.94
2022-12-03T21:28:53.819Z,101197.31
2022-12-03T21:33:56.483Z,101200.66
2022-12-03T21:38:57.925Z,101197.31
2022-12-03T21:43:59.299Z,101206.34
2022-12-03T21:49:00.733Z,101198.84
2022-12-03T21:54:02.179Z,101202.03
2022-12-03T21:59:04.114Z,101208.56
2022-12-03T22:04:05.689Z,101199.16
2022-12-03T22:09:07.077Z,101198.31
2022-12-03T22:14:08.504Z,101199.56
2022-12-03T22:19:10.001Z,101191.69
2022-12-03T22:24:11.514Z,101188.91
2022-12-03T22:29:13.192Z,101182.69
2022-12-03T22:34:14.689Z,101177.56
2022-12-03T22:39:16.090Z,101184.09
2022-12-03T22:44:17.537Z,101175.50
2022-12-03T22:49:19.096Z,101167.06
2022-12-03T22:54:23.888Z,101161.41
2022-12-03T22:59:37.743Z,101159.34
2022-12-03T23:04:52.777Z,101149.50
2022-12-03T23:10:56.937Z,101155.72
2022-12-03T23:16:06.805Z,101149.66
2022-12-03T23:26:42.291Z,101142.19
2022-12-03T23:31:54.044Z,101148.84
2022-12-03T23:37:17.282Z,101150.78
2022-12-03T23:42:31.660Z,101148.00
2022-12-03T23:48:12.473Z,101149.75
